Time;durP1;ratioP1;P1;durP2;ratioP2;P2;SDS_P1;SDS_P2;PMS_P1;PMS_P2;Temp;Humidity;BMP_temperature;BMP_pressure;BME280_temperature;BME280_humidity;BME280_pressure;Samples;Min_cycle;Max_cycle;Signal;HPM_P1;HPM_P2
2023/12/18 00:00:40;;;;;;;1007.55;899.90;;;8.20;99.90;;;;;;5091657;28;20496;-80
2023/12/18 00:03:05;;;;;;;1074.38;933.30;;;8.70;99.90;;;;;;5090184;28;20408;-80
2023/12/18 00:05:31;;;;;;;1125.97;942.25;;;8.50;99.90;;;;;;5070357;28;20044;-80
2023/12/18 00:07:57;;;;;;;993.45;889.13;;;8.50;99.90;;;;;;5057351;28;20287;-80
2023/12/18 00:10:22;;;;;;;1102.03;946.17;;;8.10;99.90;;;;;;5058099;28;20035;-80
2023/12/18 00:12:48;;;;;;;1049.50;928.70;;;8.10;99.90;;;;;;5073766;28;20075;-80
2023/12/18 00:15:14;;;;;;;1115.78;937.50;;;8.10;99.90;;;;;;5074951;28;20500;-80
2023/12/18 00:17:39;;;;;;;1054.05;924.70;;;8.50;99.90;;;;;;5057809;28;20533;-80
2023/12/18 00:20:05;;;;;;;1075.50;928.33;;;8.80;99.90;;;;;;5074379;28;20036;-80
2023/12/18 00:22:31;;;;;;;1014.28;904.05;;;8.10;99.90;;;;;;5057800;28;20037;-81
2023/12/18 00:24:57;;;;;;;1149.38;950.05;;;8.10;99.90;;;;;;5058085;28;20055;-80
2023/12/18 00:27:22;;;;;;;1138.28;947.60;;;8.10;99.90;;;;;;5074900;28;20068;-80
2023/12/18 00:29:48;;;;;;;1024.40;907.35;;;8.10;99.90;;;;;;5074783;28;20037;-80
2023/12/18 00:32:13;;;;;;;1053.68;916.92;;;8.10;99.90;;;;;;5057596;28;20041;-79
2023/12/18 00:34:42;;;;;;;1144.93;957.55;;;8.10;99.90;;;;;;5074275;28;20056;-79
2023/12/18 00:37:08;;;;;;;1015.85;904.22;;;8.10;99.90;;;;;;5064977;28;20040;-80
2023/12/18 00:39:33;;;;;;;1037.97;913.08;;;8.10;99.90;;;;;;5058046;28;20032;-80
2023/12/18 00:41:59;;;;;;;1091.53;931.72;;;8.10;99.90;;;;;;5073923;28;20041;-80
2023/12/18 00:44:24;;;;;;;1021.50;910.72;;;8.90;99.90;;;;;;5058428;28;20037;-80
2023/12/18 00:46:50;;;;;;;1021.05;904.08;;;8.10;99.90;;;;;;5074305;28;20047;-80
2023/12/18 00:49:19;;;;;;;1058.93;913.20;;;8.10;99.90;;;;;;5058359;28;20041;-80
2023/12/18 00:51:45;;;;;;;1060.10;923.15;;;8.10;99.90;;;;;;5073974;28;20043;-80
2023/12/18 00:54:10;;;;;;;1200.85;956.88;;;8.10;99.90;;;;;;5075653;28;20063;-80
2023/12/18 00:56:36;;;;;;;1018.17;900.60;;;8.30;99.90;;;;;;5073979;28;20388;-80
2023/12/18 00:59:02;;;;;;;1063.35;929.35;;;8.70;99.90;;;;;;5058022;28;20098;-81
2023/12/18 01:01:28;;;;;;;1044.25;909.03;;;8.20;99.90;;;;;;5057894;28;20052;-80
2023/12/18 01:03:54;;;;;;;1069.15;923.55;;;8.10;99.90;;;;;;5057926;28;20043;-80
2023/12/18 01:06:19;;;;;;;993.70;886.50;;;8.10;99.90;;;;;;5074565;28;20033;-80
2023/12/18 01:08:45;;;;;;;1014.50;904.08;;;8.60;99.90;;;;;;5074965;28;20075;-80
2023/12/18 01:11:11;;;;;;;1067.20;928.25;;;8.10;99.90;;;;;;5091865;28;20043;-79
2023/12/18 01:13:36;;;;;;;1073.32;923.08;;;8.10;99.90;;;;;;5057146;28;20107;-80
2023/12/18 01:16:02;;;;;;;1170.05;961.95;;;8.10;99.90;;;;;;5057836;28;20046;-80
2023/12/18 01:18:28;;;;;;;1077.22;939.58;;;8.10;99.90;;;;;;5057767;28;20040;-80
2023/12/18 01:20:53;;;;;;;1151.47;953.83;;;8.10;99.90;;;;;;5074550;28;20044;-80
2023/12/18 01:23:22;;;;;;;1143.22;965.05;;;8.10;99.90;;;;;;5059434;28;20040;-80
2023/12/18 01:25:48;;;;;;;1038.65;921.58;;;8.10;99.90;;;;;;5060810;28;20104;-80
2023/12/18 01:28:16;;;;;;;1016.70;908.17;;;8.10;99.90;;;;;;5079464;28;20048;-80
2023/12/18 01:30:42;;;;;;;1119.05;940.70;;;8.10;99.90;;;;;;5061846;28;20036;-80
2023/12/18 01:33:07;;;;;;;1066.97;928.22;;;8.10;99.90;;;;;;5078080;28;20040;-80
2023/12/18 01:35:33;;;;;;;1034.13;920.85;;;8.10;99.90;;;;;;5061193;28;20052;-80
2023/12/18 01:38:02;;;;;;;1094.68;936.45;;;8.70;99.90;;;;;;5062540;28;20091;-80
2023/12/18 01:40:28;;;;;;;1048.50;933.83;;;8.10;99.90;;;;;;5061988;28;20400;-80
2023/12/18 01:42:53;;;;;;;1088.63;929.90;;;8.60;99.90;;;;;;5061247;28;20036;-80
2023/12/18 01:45:19;;;;;;;1085.10;928.60;;;8.20;99.90;;;;;;5062103;28;20044;-80
2023/12/18 01:47:45;;;;;;;1057.35;933.58;;;8.50;99.90;;;;;;5078548;28;20037;-80
2023/12/18 01:50:11;;;;;;;1019.65;909.72;;;8.20;99.90;;;;;;5078877;28;20531;-80
2023/12/18 01:52:38;;;;;;;1170.85;966.85;;;8.20;99.90;;;;;;5080867;28;20032;-80
2023/12/18 01:55:06;;;;;;;1067.63;932.35;;;8.60;99.90;;;;;;5064097;28;20040;-80
2023/12/18 01:57:33;;;;;;;1042.30;927.58;;;8.20;99.90;;;;;;5064427;28;20029;-80
2023/12/18 01:59:58;;;;;;;1040.95;922.47;;;8.20;99.90;;;;;;5070134;28;20130;-80
2023/12/18 02:02:25;;;;;;;1031.30;917.17;;;8.30;99.90;;;;;;5071353;28;20028;-80
2023/12/18 02:04:51;;;;;;;997.10;891.83;;;8.20;99.90;;;;;;5072753;28;20119;-80
2023/12/18 02:07:17;;;;;;;1034.13;920.58;;;8.20;99.90;;;;;;5071684;28;20170;-80
2023/12/18 02:09:42;;;;;;;1035.03;922.03;;;8.90;99.90;;;;;;5062099;28;20052;-80
2023/12/18 02:12:08;;;;;;;1024.45;913.20;;;8.20;99.90;;;;;;5075865;28;20409;-80
2023/12/18 02:14:34;;;;;;;1183.85;958.13;;;8.40;99.90;;;;;;5059629;28;20094;-80
2023/12/18 02:16:59;;;;;;;1108.95;945.83;;;8.80;99.90;;;;;;5076602;28;20075;-80
2023/12/18 02:19:27;;;;;;;1049.53;929.25;;;8.20;99.90;;;;;;5060209;28;20064;-80
2023/12/18 02:21:56;;;;;;;1078.28;933.88;;;8.30;99.90;;;;;;5076001;28;20405;-80
2023/12/18 02:24:22;;;;;;;1137.55;946.72;;;8.30;99.90;;;;;;5060472;28;20052;-80
2023/12/18 02:26:48;;;;;;;1168.18;959.45;;;8.30;99.90;;;;;;5059711;28;20035;-80
2023/12/18 02:29:15;;;;;;;1044.93;929.20;;;8.20;99.90;;;;;;5059522;28;20040;-80
2023/12/18 02:31:41;;;;;;;1087.35;939.65;;;8.30;99.90;;;;;;5059747;28;20100;-80
2023/12/18 02:34:07;;;;;;;1077.32;939.08;;;8.20;99.90;;;;;;5075774;28;20574;-80
2023/12/18 02:36:34;;;;;;;997.95;891.97;;;8.20;99.90;;;;;;5059493;28;20043;-80
2023/12/18 02:38:59;;;;;;;1003.80;897.15;;;8.20;99.90;;;;;;5059342;28;20033;-80
2023/12/18 02:41:25;;;;;;;1141.57;946.63;;;8.20;99.90;;;;;;5059270;28;20544;-80
2023/12/18 02:43:51;;;;;;;1062.15;931.05;;;8.40;99.90;;;;;;5074996;28;20068;-80
2023/12/18 02:46:20;;;;;;;1070.22;928.45;;;8.20;99.90;;;;;;5075182;28;20048;-80
2023/12/18 02:48:45;;;;;;;1091.80;934.20;;;8.20;99.90;;;;;;5075087;28;20036;-79
2023/12/18 02:51:11;;;;;;;1136.50;953.50;;;8.20;99.90;;;;;;5058558;28;20032;-79
2023/12/18 02:53:36;;;;;;;1057.22;927.78;;;8.40;99.90;;;;;;5075926;28;20092;-79
2023/12/18 02:56:02;;;;;;;1134.47;945.55;;;8.20;99.90;;;;;;5075554;28;20546;-80
2023/12/18 02:58:28;;;;;;;1113.40;952.97;;;8.20;99.90;;;;;;5057688;28;20120;-80
2023/12/18 03:00:53;;;;;;;1020.05;909.45;;;8.20;99.90;;;;;;5074573;28;20492;-80
2023/12/18 03:03:19;;;;;;;1066.15;915.47;;;8.20;99.90;;;;;;5058458;28;20048;-80
2023/12/18 03:05:45;;;;;;;1022.45;901.75;;;8.20;99.90;;;;;;5073924;28;20047;-79
2023/12/18 03:08:10;;;;;;;1032.90;918.15;;;8.20;99.90;;;;;;5074964;28;20028;-79
2023/12/18 03:10:37;;;;;;;1055.70;925.10;;;8.20;99.90;;;;;;5058828;28;20064;-80
2023/12/18 03:13:03;;;;;;;1195.57;958.78;;;8.20;99.90;;;;;;5074333;28;20036;-80
2023/12/18 03:15:29;;;;;;;1122.03;940.40;;;8.20;99.90;;;;;;5074307;28;20036;-80
2023/12/18 03:17:54;;;;;;;1080.85;916.05;;;8.20;99.90;;;;;;5058065;28;20036;-80
2023/12/18 03:20:20;;;;;;;1027.03;915.63;;;8.20;99.90;;;;;;5058136;28;20063;-80
2023/12/18 03:22:46;;;;;;;1048.18;930.92;;;8.20;99.90;;;;;;5059318;28;20036;-80
2023/12/18 03:25:11;;;;;;;1109.53;928.10;;;8.20;99.90;;;;;;5074735;28;20060;-80
2023/12/18 03:27:37;;;;;;;1114.50;947.65;;;8.60;99.90;;;;;;5059521;28;20472;-80
2023/12/18 03:30:05;;;;;;;1009.85;900.97;;;8.20;99.90;;;;;;5059178;28;20037;-80
2023/12/18 03:32:30;;;;;;;1051.32;935.67;;;8.20;99.90;;;;;;5075172;28;20036;-80
2023/12/18 03:34:56;;;;;;;1077.80;927.53;;;8.20;99.90;;;;;;5075597;28;20039;-80
2023/12/18 03:37:22;;;;;;;1114.65;937.55;;;8.10;99.90;;;;;;5059605;28;20040;-80
2023/12/18 03:39:47;;;;;;;1012.67;902.58;;;8.70;99.90;;;;;;5059285;28;20029;-80
2023/12/18 03:42:13;;;;;;;1041.28;926.47;;;8.20;99.90;;;;;;5059584;28;20037;-80
2023/12/18 03:44:38;;;;;;;1023.58;911.15;;;8.20;99.90;;;;;;5059981;28;20055;-80
2023/12/18 03:47:04;;;;;;;1031.07;916.90;;;8.20;99.90;;;;;;5059672;28;20032;-80
2023/12/18 03:49:29;;;;;;;1031.07;915.13;;;8.20;99.90;;;;;;5043647;28;20392;-80
2023/12/18 03:51:55;;;;;;;1070.18;922.15;;;8.80;99.90;;;;;;5060736;28;20037;-80
2023/12/18 03:54:21;;;;;;;1030.43;916.05;;;8.20;99.90;;;;;;5061677;28;20029;-80
2023/12/18 03:56:46;;;;;;;1064.10;909.97;;;8.20;99.90;;;;;;5062470;28;20036;-80
2023/12/18 03:59:12;;;;;;;1050.47;925.17;;;8.20;99.90;;;;;;5080214;28;20068;-80
2023/12/18 04:01:37;;;;;;;1003.78;893.47;;;8.20;99.90;;;;;;5069951;28;20040;-80
2023/12/18 04:04:03;;;;;;;1007.17;898.08;;;8.20;99.90;;;;;;5069434;28;20501;-80
2023/12/18 04:06:29;;;;;;;1109.45;930.47;;;8.20;99.90;;;;;;5089667;28;20051;-80
2023/12/18 04:08:55;;;;;;;1050.25;919.88;;;8.30;99.90;;;;;;5068708;28;20096;-80
2023/12/18 04:11:23;;;;;;;1014.05;902.83;;;8.20;99.90;;;;;;5076713;28;20040;-80
2023/12/18 04:13:50;;;;;;;1022.53;910.58;;;8.20;99.90;;;;;;5058219;28;20079;-80
2023/12/18 04:16:16;;;;;;;1021.28;909.85;;;8.20;99.90;;;;;;5040978;28;20081;-80
2023/12/18 04:18:42;;;;;;;1006.35;897.83;;;8.20;99.90;;;;;;5057978;28;20048;-80
2023/12/18 04:21:07;;;;;;;1123.82;942.65;;;8.20;99.90;;;;;;5057278;28;20044;-79
2023/12/18 04:23:33;;;;;;;1020.97;909.70;;;8.20;99.90;;;;;;5056801;28;20073;-80
2023/12/18 04:25:58;;;;;;;1016.95;906.10;;;8.20;99.90;;;;;;5057551;28;20052;-79
2023/12/18 04:28:24;;;;;;;1023.28;912.60;;;8.70;99.90;;;;;;5058387;28;20044;-79
2023/12/18 04:30:49;;;;;;;1024.47;912.90;;;8.20;99.90;;;;;;5075652;28;20028;-80
2023/12/18 04:33:15;;;;;;;1188.13;960.15;;;8.50;99.90;;;;;;5057840;28;20040;-80
2023/12/18 04:35:41;;;;;;;1056.07;923.90;;;8.20;99.90;;;;;;5057108;28;20106;-80
2023/12/18 04:38:07;;;;;;;1018.65;907.50;;;8.30;99.90;;;;;;5074380;28;20044;-80
2023/12/18 04:40:33;;;;;;;1002.42;895.85;;;8.20;99.90;;;;;;5057689;28;20048;-80
2023/12/18 04:42:58;;;;;;;1030.05;918.35;;;8.90;99.90;;;;;;5057894;28;20127;-80
2023/12/18 04:45:24;;;;;;;1090.72;934.00;;;8.20;99.90;;;;;;5074909;28;20044;-80
2023/12/18 04:47:50;;;;;;;1073.80;935.80;;;8.20;99.90;;;;;;5057391;28;20111;-80
2023/12/18 04:50:15;;;;;;;1120.75;944.03;;;8.20;99.90;;;;;;5057799;28;20061;-80
2023/12/18 04:52:41;;;;;;;1022.83;909.83;;;8.20;99.90;;;;;;5073797;28;20561;-80
2023/12/18 04:55:08;;;;;;;1066.80;914.20;;;8.20;99.90;;;;;;5074727;28;20071;-80
2023/12/18 04:57:33;;;;;;;1072.22;927.35;;;8.20;99.90;;;;;;5076551;28;20041;-80
2023/12/18 04:59:59;;;;;;;1019.03;909.63;;;8.30;99.90;;;;;;5079374;28;20044;-80
2023/12/18 05:02:24;;;;;;;1090.32;927.20;;;8.20;99.90;;;;;;5078628;28;20043;-80
2023/12/18 05:04:50;;;;;;;1047.03;915.20;;;8.50;99.90;;;;;;5062134;28;20047;-80
2023/12/18 05:07:16;;;;;;;1112.07;934.17;;;8.30;99.90;;;;;;5061872;28;20032;-80
2023/12/18 05:09:41;;;;;;;1058.30;922.33;;;8.40;99.90;;;;;;5078751;28;20508;-80
2023/12/18 05:12:07;;;;;;;1147.47;941.72;;;8.30;99.90;;;;;;5062308;28;20089;-80
2023/12/18 05:14:33;;;;;;;1062.85;931.70;;;8.30;99.90;;;;;;5079322;28;20044;-80
2023/12/18 05:16:58;;;;;;;1013.58;902.78;;;8.30;99.90;;;;;;5061346;28;20048;-80
2023/12/18 05:19:24;;;;;;;1046.60;919.28;;;8.30;99.90;;;;;;5073582;28;20045;-80
2023/12/18 05:21:50;;;;;;;1036.28;906.58;;;8.30;99.90;;;;;;5056318;28;20456;-81
2023/12/18 05:24:15;;;;;;;1008.78;896.95;;;8.30;99.90;;;;;;5062632;28;20053;-82
2023/12/18 05:26:41;;;;;;;1067.15;936.78;;;8.80;99.90;;;;;;5074289;28;20100;-82
2023/12/18 05:29:07;;;;;;;1081.70;941.03;;;8.50;99.90;;;;;;5061191;28;20036;-81
2023/12/18 05:31:32;;;;;;;1033.65;915.55;;;8.30;99.90;;;;;;5060882;28;20098;-81
2023/12/18 05:33:58;;;;;;;1009.78;901.72;;;8.40;99.90;;;;;;5077588;28;20044;-81
2023/12/18 05:36:24;;;;;;;1014.60;907.30;;;8.70;99.90;;;;;;5060741;28;20076;-81
2023/12/18 05:38:49;;;;;;;1057.22;922.97;;;8.40;99.90;;;;;;5059699;28;20102;-81
2023/12/18 05:41:15;;;;;;;1020.22;910.13;;;8.30;99.90;;;;;;5061370;28;20051;-81
2023/12/18 05:43:44;;;;;;;1062.95;931.13;;;8.40;99.90;;;;;;5062006;28;20079;-82
2023/12/18 05:46:13;;;;;;;1056.50;927.17;;;8.50;99.90;;;;;;5077129;28;20515;-81
2023/12/18 05:48:39;;;;;;;1079.25;942.10;;;8.40;99.90;;;;;;5060525;28;20041;-81
2023/12/18 05:51:05;;;;;;;1032.93;921.67;;;8.50;99.90;;;;;;5078141;28;20117;-81
2023/12/18 05:53:30;;;;;;;1074.82;931.67;;;8.40;99.90;;;;;;5078178;28;20036;-81
2023/12/18 05:55:56;;;;;;;1037.78;913.25;;;8.40;99.90;;;;;;5078779;28;20032;-81
2023/12/18 05:58:21;;;;;;;1055.82;925.15;;;8.40;99.90;;;;;;5063723;28;20040;-82
2023/12/18 06:00:47;;;;;;;1085.32;930.47;;;8.60;99.90;;;;;;5064171;28;20043;-81
2023/12/18 06:03:13;;;;;;;1125.95;933.55;;;8.40;99.90;;;;;;5091786;28;20036;-81
2023/12/18 06:05:38;;;;;;;1070.10;910.33;;;9.10;99.90;;;;;;5068290;28;20043;-81
2023/12/18 06:08:04;;;;;;;1037.93;918.20;;;8.30;99.90;;;;;;5094448;28;20052;-81
2023/12/18 06:10:30;;;;;;;1033.18;916.75;;;8.30;99.90;;;;;;5077121;28;20040;-82
2023/12/18 06:12:55;;;;;;;1088.45;928.42;;;8.30;99.90;;;;;;5076131;28;20039;-81
2023/12/18 06:15:21;;;;;;;1026.80;911.58;;;8.30;99.90;;;;;;5075044;28;20078;-81
2023/12/18 06:17:47;;;;;;;1048.82;923.97;;;8.40;99.90;;;;;;5058874;28;20040;-81
2023/12/18 06:20:13;;;;;;;1161.25;949.78;;;8.40;99.90;;;;;;5058912;28;20040;-81
2023/12/18 06:22:38;;;;;;;1013.67;902.55;;;8.40;99.90;;;;;;5059084;28;20105;-81
2023/12/18 06:25:04;;;;;;;1008.38;900.58;;;8.40;99.90;;;;;;5074955;28;20086;-82
2023/12/18 06:27:30;;;;;;;1069.50;931.60;;;8.40;99.90;;;;;;5058832;28;20037;-80
2023/12/18 06:29:55;;;;;;;1014.00;902.63;;;8.40;99.90;;;;;;5075534;28;20063;-81
2023/12/18 06:32:21;;;;;;;1026.13;913.78;;;8.40;99.90;;;;;;5058663;28;20109;-81
2023/12/18 06:34:47;;;;;;;1007.55;898.90;;;8.40;99.90;;;;;;5059710;28;20044;-82
2023/12/18 06:37:12;;;;;;;1062.47;931.28;;;8.40;99.90;;;;;;5059369;28;20574;-83
2023/12/18 06:39:38;;;;;;;1115.05;939.80;;;8.30;99.90;;;;;;5059964;28;20040;-81
2023/12/18 06:42:04;;;;;;;1045.45;922.40;;;8.60;99.90;;;;;;5076162;28;20040;-82
2023/12/18 06:44:30;;;;;;;1059.63;929.50;;;8.30;99.90;;;;;;5075709;28;20251;-83
2023/12/18 06:46:56;;;;;;;1078.93;919.95;;;8.30;99.90;;;;;;5060567;28;20036;-82
2023/12/18 06:49:21;;;;;;;1065.78;922.22;;;8.40;99.90;;;;;;5077121;28;20036;-83
2023/12/18 06:51:49;;;;;;;1104.72;924.80;;;8.60;99.90;;;;;;5060778;28;20461;-82
2023/12/18 06:54:16;;;;;;;1125.10;936.08;;;8.50;99.90;;;;;;5060875;28;20028;-82
2023/12/18 06:56:41;;;;;;;1013.00;904.63;;;8.30;99.90;;;;;;5078182;28;20043;-82
2023/12/18 06:59:07;;;;;;;1143.88;932.90;;;8.30;99.90;;;;;;5061021;28;20032;-82
2023/12/18 07:01:33;;;;;;;1003.88;891.70;;;8.30;99.90;;;;;;5060103;28;20310;-82
2023/12/18 07:03:59;;;;;;;1102.82;931.67;;;8.30;99.90;;;;;;5075241;28;20209;-79
2023/12/18 07:06:24;;;;;;;1055.43;909.97;;;8.30;99.90;;;;;;5056344;28;20064;-80
2023/12/18 07:08:50;;;;;;;1027.75;906.88;;;8.30;99.90;;;;;;5057091;28;20028;-79
2023/12/18 07:11:16;;;;;;;1043.93;926.25;;;8.80;99.90;;;;;;5056350;28;20381;-78
2023/12/18 07:13:41;;;;;;;1097.82;929.58;;;8.30;99.90;;;;;;5076201;28;20063;-80
2023/12/18 07:16:07;;;;;;;1144.60;937.72;;;8.30;99.90;;;;;;5059422;28;20079;-81
2023/12/18 07:18:33;;;;;;;1094.45;919.50;;;9.00;99.90;;;;;;5059704;28;20041;-81
2023/12/18 07:20:59;;;;;;;1069.97;925.78;;;8.30;99.90;;;;;;5059389;28;20052;-81
2023/12/18 07:23:24;;;;;;;1127.65;926.30;;;8.30;99.90;;;;;;5074592;28;20547;-81
2023/12/18 07:25:50;;;;;;;1102.63;940.33;;;8.30;99.90;;;;;;5074978;28;20117;-80
2023/12/18 07:28:16;;;;;;;1084.55;921.53;;;8.30;99.90;;;;;;5054691;28;20054;-80
2023/12/18 07:30:41;;;;;;;1116.25;935.08;;;9.10;99.90;;;;;;5059527;28;20104;-81
2023/12/18 07:33:07;;;;;;;1170.88;943.67;;;8.30;99.90;;;;;;5059090;28;20445;-83
2023/12/18 07:35:32;;;;;;;1110.25;926.97;;;8.30;99.90;;;;;;5043284;28;20036;-84
2023/12/18 07:37:58;;;;;;;1182.72;954.00;;;8.90;99.90;;;;;;5061505;28;20052;-83
2023/12/18 07:40:24;;;;;;;1001.95;894.20;;;9.00;99.90;;;;;;5061753;28;20527;-83
2023/12/18 07:42:49;;;;;;;1066.55;901.50;;;8.30;99.90;;;;;;5056785;28;20406;-83
2023/12/18 07:45:15;;;;;;;1155.45;941.30;;;8.30;99.90;;;;;;5061610;28;20048;-83
2023/12/18 07:47:41;;;;;;;1098.90;929.65;;;8.30;99.90;;;;;;5061834;28;20032;-82
2023/12/18 07:50:07;;;;;;;1151.97;948.67;;;8.30;99.90;;;;;;5061378;28;20054;-83
2023/12/18 07:52:34;;;;;;;1177.80;938.78;;;8.30;99.90;;;;;;5062545;28;20147;-83
2023/12/18 07:54:59;;;;;;;1198.80;963.80;;;8.30;99.90;;;;;;5081664;28;20036;-82
2023/12/18 07:57:25;;;;;;;1073.22;922.60;;;8.30;99.90;;;;;;5063134;28;20119;-83
2023/12/18 07:59:51;;;;;;;1128.85;954.55;;;8.30;99.90;;;;;;5075350;28;20116;-84
2023/12/18 08:02:16;;;;;;;1170.65;947.10;;;8.90;99.90;;;;;;5062769;28;20033;-85
2023/12/18 08:04:42;;;;;;;1083.47;927.70;;;9.00;99.90;;;;;;5074717;28;20044;-83
2023/12/18 08:07:07;;;;;;;1260.53;964.90;;;8.70;99.90;;;;;;5083828;28;20498;-83
2023/12/18 08:09:33;;;;;;;1344.32;989.45;;;8.30;99.90;;;;;;5077230;28;20037;-83
2023/12/18 08:11:59;;;;;;;1233.63;957.10;;;8.30;99.90;;;;;;5089800;28;20072;-84
2023/12/18 08:14:25;;;;;;;1309.65;982.65;;;8.30;99.90;;;;;;5057693;28;20454;-84
2023/12/18 08:16:50;;;;;;;1163.93;942.35;;;8.30;99.90;;;;;;5054292;28;20090;-84
2023/12/18 08:19:16;;;;;;;1079.35;918.95;;;8.60;99.90;;;;;;5053547;28;20036;-85
2023/12/18 08:21:43;;;;;;;1123.13;951.78;;;9.00;99.90;;;;;;5071676;28;20412;-84
2023/12/18 08:24:09;;;;;;;1155.57;939.00;;;8.80;99.90;;;;;;5073901;28;20044;-84
2023/12/18 08:26:35;;;;;;;1154.95;952.17;;;8.30;99.90;;;;;;5072265;28;20152;-85
2023/12/18 08:29:00;;;;;;;1091.05;939.92;;;8.70;99.90;;;;;;5057622;28;20032;-83
2023/12/18 08:31:26;;;;;;;1111.47;946.53;;;8.30;99.90;;;;;;5057538;28;20040;-84
2023/12/18 08:33:52;;;;;;;1018.78;906.65;;;8.40;99.90;;;;;;5057977;28;20025;-84
2023/12/18 08:36:18;;;;;;;1004.80;895.53;;;8.50;99.90;;;;;;5056595;28;20424;-83
2023/12/18 08:38:44;;;;;;;1068.07;928.38;;;8.80;99.90;;;;;;5056798;28;20058;-85
2023/12/18 08:41:09;;;;;;;1225.70;942.97;;;8.70;99.90;;;;;;5056062;28;20059;-85
2023/12/18 08:43:35;;;;;;;1268.22;974.30;;;8.50;99.90;;;;;;5054926;28;20048;-85
2023/12/18 08:46:00;;;;;;;1234.47;951.83;;;8.80;99.90;;;;;;5054957;28;20253;-84
2023/12/18 08:48:26;;;;;;;1104.43;928.67;;;8.40;99.90;;;;;;5054901;28;20033;-85
2023/12/18 08:50:51;;;;;;;1103.55;945.53;;;8.40;99.90;;;;;;5054012;28;20057;-84
2023/12/18 08:53:17;;;;;;;1227.00;964.80;;;8.40;99.90;;;;;;5058197;28;20066;-84
2023/12/18 08:55:43;;;;;;;1102.80;935.65;;;9.30;99.90;;;;;;5052525;28;20040;-85
2023/12/18 08:58:09;;;;;;;1158.53;939.47;;;9.00;99.90;;;;;;5053756;28;20037;-85
2023/12/18 09:00:37;;;;;;;1261.30;970.15;;;9.20;99.90;;;;;;5054993;28;20071;-85
2023/12/18 09:03:06;;;;;;;1140.10;948.88;;;8.50;99.90;;;;;;5057344;28;20497;-84
2023/12/18 09:05:32;;;;;;;1151.72;951.53;;;8.50;99.90;;;;;;5056803;28;20082;-83
2023/12/18 09:08:00;;;;;;;1144.85;927.15;;;8.50;99.90;;;;;;5073081;28;20049;-84
2023/12/18 09:10:25;;;;;;;1086.65;936.22;;;8.50;99.90;;;;;;5040195;28;20404;-85
2023/12/18 09:12:52;;;;;;;1224.40;968.38;;;8.40;99.90;;;;;;5039286;28;20036;-85
2023/12/18 09:15:18;;;;;;;1125.40;937.85;;;8.40;99.90;;;;;;5071853;28;20032;-84
2023/12/18 09:17:44;;;;;;;1095.10;940.47;;;8.40;99.90;;;;;;5057070;28;20044;-84
2023/12/18 09:20:10;;;;;;;1169.03;948.70;;;8.40;99.90;;;;;;5057683;28;20036;-84
2023/12/18 09:22:36;;;;;;;1091.40;933.45;;;8.40;99.90;;;;;;5055537;28;20040;-79
2023/12/18 09:25:02;;;;;;;1054.38;921.00;;;8.40;99.90;;;;;;5070931;28;20063;-79
2023/12/18 09:27:28;;;;;;;1152.90;946.00;;;8.40;99.90;;;;;;5071290;28;20102;-79
2023/12/18 09:29:53;;;;;;;1183.88;951.88;;;8.40;99.90;;;;;;5054685;28;20044;-79
2023/12/18 09:32:19;;;;;;;1096.70;942.70;;;8.30;99.90;;;;;;5054719;28;20028;-80
2023/12/18 09:34:44;;;;;;;1147.78;927.20;;;8.30;99.90;;;;;;5073488;28;20109;-84
2023/12/18 09:37:10;;;;;;;1208.63;955.40;;;8.70;99.90;;;;;;5057685;28;20045;-84
2023/12/18 09:39:36;;;;;;;1103.00;927.25;;;8.30;99.90;;;;;;5069993;28;20066;-84
2023/12/18 09:42:02;;;;;;;1154.40;951.55;;;8.40;99.90;;;;;;5056511;28;20041;-85
2023/12/18 09:44:31;;;;;;;1011.15;902.45;;;8.40;99.90;;;;;;5072815;28;20047;-84
2023/12/18 09:47:00;;;;;;;1079.03;950.13;;;8.40;99.90;;;;;;5076326;28;20060;-84
2023/12/18 09:49:26;;;;;;;1109.70;932.38;;;8.40;99.90;;;;;;5075769;28;20033;-84
2023/12/18 09:52:00;;;;;;;1116.55;943.33;;;8.50;99.90;;;;;;5061170;28;20078;-84
2023/12/18 09:54:27;;;;;;;1192.40;950.88;;;8.70;99.90;;;;;;5061809;28;20035;-84
2023/12/18 09:56:55;;;;;;;1149.38;947.22;;;9.00;99.90;;;;;;5078367;28;20036;-84
2023/12/18 09:59:21;;;;;;;1051.70;929.95;;;9.30;99.90;;;;;;5057556;28;20044;-85
2023/12/18 10:01:48;;;;;;;1047.78;923.10;;;8.00;99.90;;;;;;5059151;28;20039;-82
2023/12/18 10:04:13;;;;;;;1125.30;942.42;;;8.50;99.90;;;;;;5062070;28;20028;-83
2023/12/18 10:06:39;;;;;;;1024.65;911.67;;;8.50;99.90;;;;;;5077881;28;20063;-82
2023/12/18 10:09:13;;;;;;;1052.82;920.88;;;8.50;99.90;;;;;;5076916;28;20025;-84
2023/12/18 10:11:44;;;;;;;1070.95;931.88;;;8.60;99.90;;;;;;5057996;28;20302;-84
2023/12/18 10:14:13;;;;;;;1068.40;926.67;;;8.80;99.90;;;;;;5075156;28;20020;-84
2023/12/18 10:16:39;;;;;;;1128.18;942.30;;;8.70;99.90;;;;;;5053911;28;20067;-85
2023/12/18 10:19:05;;;;;;;1105.30;946.53;;;9.20;99.90;;;;;;5056699;28;20049;-84
2023/12/18 10:21:31;;;;;;;1066.95;928.65;;;8.70;99.90;;;;;;5056320;28;20043;-84
2023/12/18 10:23:57;;;;;;;1068.20;920.10;;;9.00;99.90;;;;;;5056435;28;20049;-84
2023/12/18 10:26:23;;;;;;;1036.60;918.92;;;8.80;99.90;;;;;;5056382;28;20044;-84
2023/12/18 10:28:51;;;;;;;1020.30;910.15;;;8.80;99.90;;;;;;5055728;28;20029;-83
2023/12/18 10:31:17;;;;;;;1057.53;927.90;;;8.80;99.90;;;;;;5057084;28;20044;-84
2023/12/18 10:33:43;;;;;;;1093.95;926.65;;;9.40;99.90;;;;;;5056180;28;20539;-84
2023/12/18 10:36:09;;;;;;;1100.35;919.60;;;8.90;99.90;;;;;;5058532;28;20048;-84
2023/12/18 10:38:38;;;;;;;1015.70;904.25;;;8.90;99.90;;;;;;5074157;28;20036;-83
2023/12/18 10:41:04;;;;;;;1023.53;909.88;;;8.90;99.90;;;;;;5074520;28;20044;-85
2023/12/18 10:43:35;;;;;;;1034.35;921.42;;;9.00;99.90;;;;;;5073242;28;20059;-84
2023/12/18 10:46:02;;;;;;;1003.75;895.35;;;9.00;99.90;;;;;;5055442;28;20068;-85
2023/12/18 10:48:28;;;;;;;1026.80;904.35;;;9.30;99.90;;;;;;5055711;28;20047;-85
2023/12/18 10:50:57;;;;;;;1069.57;928.67;;;9.10;99.90;;;;;;5056628;28;20598;-85
2023/12/18 10:53:24;;;;;;;986.00;885.78;;;9.10;99.90;;;;;;5056450;28;20036;-85
2023/12/18 10:55:52;;;;;;;993.95;887.33;;;9.70;99.90;;;;;;5074049;28;20049;-84
2023/12/18 10:58:18;;;;;;;988.13;884.55;;;9.10;99.90;;;;;;5057486;28;20063;-84
2023/12/18 11:00:44;;;;;;;983.78;881.42;;;9.10;99.90;;;;;;5058734;28;20037;-84
2023/12/18 11:03:11;;;;;;;1032.10;914.58;;;9.40;99.90;;;;;;5055769;28;20075;-85
2023/12/18 11:05:37;;;;;;;980.20;877.90;;;9.10;99.90;;;;;;5053481;28;20035;-85
2023/12/18 11:08:03;;;;;;;984.10;883.03;;;9.10;99.90;;;;;;5072689;28;20091;-85
2023/12/18 11:10:29;;;;;;;1017.53;898.55;;;9.10;99.90;;;;;;5073876;28;20405;-81
2023/12/18 11:13:03;;;;;;;1023.72;906.10;;;9.40;99.90;;;;;;5057010;28;20032;-82
2023/12/18 11:15:49;;;;;;;984.35;882.63;;;9.10;99.90;;;;;;5057154;28;20060;-82
2023/12/18 11:18:36;;;;;;;1221.93;939.97;;;9.10;99.90;;;;;;5068612;28;20036;-82
2023/12/18 11:21:02;;;;;;;1028.95;906.25;;;9.10;99.90;;;;;;5074086;28;20040;-82
2023/12/18 11:23:37;;;;;;;1064.40;930.25;;;9.10;99.90;;;;;;5058531;28;20382;-82
2023/12/18 11:26:10;;;;;;;1107.45;926.97;;;9.20;99.90;;;;;;5059331;28;20052;-82
2023/12/18 11:28:36;;;;;;;1096.85;943.15;;;9.20;99.90;;;;;;5074666;28;20032;-82
2023/12/18 11:31:04;;;;;;;1045.88;930.72;;;9.10;99.90;;;;;;5057800;28;20028;-82
2023/12/18 11:33:30;;;;;;;1001.75;897.70;;;9.10;99.90;;;;;;5054827;28;20163;-82
2023/12/18 11:35:57;;;;;;;1033.43;910.75;;;9.30;99.90;;;;;;5073857;28;20294;-82
2023/12/18 11:38:24;;;;;;;1016.25;909.50;;;9.10;99.90;;;;;;5072494;28;20052;-82
2023/12/18 11:40:55;;;;;;;1002.85;896.42;;;9.10;99.90;;;;;;5057597;28;20044;-84
2023/12/18 11:43:38;;;;;;;1010.22;903.53;;;9.10;99.90;;;;;;5068655;28;20445;-86
2023/12/18 11:46:09;;;;;;;995.40;889.63;;;9.10;99.90;;;;;;5054616;28;20047;-85
2023/12/18 11:48:35;;;;;;;985.78;884.65;;;9.10;99.90;;;;;;5054650;28;20032;-85
2023/12/18 11:51:04;;;;;;;990.40;887.50;;;9.10;99.90;;;;;;5053614;28;20037;-86
2023/12/18 11:53:36;;;;;;;1047.20;917.95;;;9.20;99.90;;;;;;5054213;28;20036;-86
2023/12/18 11:56:07;;;;;;;1020.08;910.85;;;9.20;99.90;;;;;;5070559;28;20044;-85
2023/12/18 11:58:34;;;;;;;983.70;881.95;;;9.10;99.90;;;;;;5055186;28;20040;-85
2023/12/18 12:00:59;;;;;;;1009.22;903.00;;;9.20;99.90;;;;;;5054427;28;20059;-85
2023/12/18 12:03:25;;;;;;;1005.92;898.78;;;9.10;99.90;;;;;;5054900;28;20040;-85